sensor_id;sensor_type;location;lat;lon;timestamp;P1;durP1;ratioP1;P2;durP2;ratioP2
75766;SDS011;64378;55.596;13.014;2023-03-14T14:31:03;12.73;;;2.33;;
75766;SDS011;64378;55.596;13.014;2023-03-14T14:33:42;15.85;;;3.05;;
75766;SDS011;64378;55.596;13.014;2023-03-14T14:36:15;14.18;;;2.60;;
75766;SDS011;64378;55.596;13.014;2023-03-14T14:39:04;13.43;;;2.53;;
75766;SDS011;64378;55.596;13.014;2023-03-14T14:41:35;12.57;;;2.70;;
75766;SDS011;64378;55.596;13.014;2023-03-14T14:44:05;13.17;;;2.83;;
75766;SDS011;64378;55.596;13.014;2023-03-14T14:46:31;11.60;;;2.90;;
75766;SDS011;64378;55.596;13.014;2023-03-14T14:49:02;11.07;;;3.08;;
75766;SDS011;64378;55.596;13.014;2023-03-14T14:51:32;12.03;;;2.80;;
75766;SDS011;64378;55.596;13.014;2023-03-14T14:54:15;12.38;;;2.97;;
75766;SDS011;64378;55.596;13.014;2023-03-14T14:56:48;11.70;;;3.03;;
75766;SDS011;64378;55.596;13.014;2023-03-14T14:59:21;12.53;;;2.90;;
75766;SDS011;64378;55.596;13.014;2023-03-14T15:01:55;10.25;;;2.90;;
75766;SDS011;64378;55.596;13.014;2023-03-14T15:04:25;8.93;;;2.60;;
75766;SDS011;64378;55.596;13.014;2023-03-14T15:06:51;12.03;;;2.80;;
75766;SDS011;64378;55.596;13.014;2023-03-14T15:09:18;9.60;;;2.40;;
75766;SDS011;64378;55.596;13.014;2023-03-14T15:11:44;10.60;;;2.38;;
75766;SDS011;64378;55.596;13.014;2023-03-14T15:14:11;10.93;;;2.50;;
75766;SDS011;64378;55.596;13.014;2023-03-14T15:16:37;10.20;;;2.50;;
75766;SDS011;64378;55.596;13.014;2023-03-14T15:19:08;10.67;;;2.50;;
75766;SDS011;64378;55.596;13.014;2023-03-14T15:21:37;10.80;;;2.37;;
75766;SDS011;64378;55.596;13.014;2023-03-14T15:24:03;9.52;;;2.13;;
75766;SDS011;64378;55.596;13.014;2023-03-14T15:26:30;10.50;;;2.50;;
75766;SDS011;64378;55.596;13.014;2023-03-14T15:28:55;9.70;;;2.30;;
75766;SDS011;64378;55.596;13.014;2023-03-14T15:31:21;11.43;;;2.30;;
75766;SDS011;64378;55.596;13.014;2023-03-14T15:33:47;9.60;;;2.50;;
75766;SDS011;64378;55.596;13.014;2023-03-14T15:36:22;9.23;;;2.13;;
75766;SDS011;64378;55.596;13.014;2023-03-14T15:38:50;8.90;;;2.17;;
75766;SDS011;64378;55.596;13.014;2023-03-14T15:41:17;7.30;;;1.90;;
75766;SDS011;64378;55.596;13.014;2023-03-14T15:43:44;10.30;;;2.20;;
75766;SDS011;64378;55.596;13.014;2023-03-14T15:46:10;6.45;;;1.75;;
75766;SDS011;64378;55.596;13.014;2023-03-14T15:48:36;6.97;;;1.80;;
75766;SDS011;64378;55.596;13.014;2023-03-14T15:51:01;8.60;;;1.70;;
75766;SDS011;64378;55.596;13.014;2023-03-14T15:53:27;7.93;;;1.77;;
75766;SDS011;64378;55.596;13.014;2023-03-14T15:55:52;7.47;;;1.63;;
75766;SDS011;64378;55.596;13.014;2023-03-14T15:58:18;9.48;;;1.92;;
75766;SDS011;64378;55.596;13.014;2023-03-14T16:00:44;9.15;;;1.88;;
75766;SDS011;64378;55.596;13.014;2023-03-14T16:03:10;6.20;;;1.40;;
75766;SDS011;64378;55.596;13.014;2023-03-14T16:05:38;8.65;;;1.70;;
75766;SDS011;64378;55.596;13.014;2023-03-14T16:08:05;6.72;;;1.70;;
75766;SDS011;64378;55.596;13.014;2023-03-14T16:10:31;8.77;;;1.80;;
75766;SDS011;64378;55.596;13.014;2023-03-14T16:12:57;6.72;;;1.65;;
75766;SDS011;64378;55.596;13.014;2023-03-14T16:15:25;6.93;;;1.45;;
75766;SDS011;64378;55.596;13.014;2023-03-14T16:17:52;9.25;;;2.00;;
75766;SDS011;64378;55.596;13.014;2023-03-14T16:20:18;8.80;;;1.60;;
75766;SDS011;64378;55.596;13.014;2023-03-14T16:22:44;6.10;;;1.33;;
75766;SDS011;64378;55.596;13.014;2023-03-14T16:25:11;9.43;;;1.52;;
75766;SDS011;64378;55.596;13.014;2023-03-14T16:27:36;7.03;;;1.30;;
75766;SDS011;64378;55.596;13.014;2023-03-14T16:30:02;8.07;;;1.53;;
75766;SDS011;64378;55.596;13.014;2023-03-14T16:32:28;5.63;;;1.20;;
75766;SDS011;64378;55.596;13.014;2023-03-14T16:34:54;7.87;;;1.70;;
75766;SDS011;64378;55.596;13.014;2023-03-14T16:37:19;6.55;;;1.40;;
75766;SDS011;64378;55.596;13.014;2023-03-14T16:39:52;7.23;;;1.63;;
75766;SDS011;64378;55.596;13.014;2023-03-14T16:42:18;9.88;;;1.67;;
75766;SDS011;64378;55.596;13.014;2023-03-14T16:44:45;7.47;;;1.17;;
75766;SDS011;64378;55.596;13.014;2023-03-14T16:47:11;7.57;;;1.40;;
75766;SDS011;64378;55.596;13.014;2023-03-14T16:49:36;7.27;;;1.30;;
75766;SDS011;64378;55.596;13.014;2023-03-14T16:52:02;7.82;;;1.27;;
75766;SDS011;64378;55.596;13.014;2023-03-14T16:54:28;7.85;;;1.50;;
75766;SDS011;64378;55.596;13.014;2023-03-14T16:56:54;6.97;;;1.33;;
75766;SDS011;64378;55.596;13.014;2023-03-14T16:59:19;6.67;;;1.40;;
75766;SDS011;64378;55.596;13.014;2023-03-14T17:01:45;6.03;;;1.20;;
75766;SDS011;64378;55.596;13.014;2023-03-14T17:04:10;6.18;;;1.27;;
75766;SDS011;64378;55.596;13.014;2023-03-14T17:06:36;9.02;;;1.17;;
75766;SDS011;64378;55.596;13.014;2023-03-14T17:09:02;6.90;;;1.30;;
75766;SDS011;64378;55.596;13.014;2023-03-14T17:11:29;8.50;;;1.20;;
75766;SDS011;64378;55.596;13.014;2023-03-14T17:13:57;5.93;;;1.13;;
75766;SDS011;64378;55.596;13.014;2023-03-14T17:16:23;7.25;;;1.33;;
75766;SDS011;64378;55.596;13.014;2023-03-14T17:18:51;7.53;;;1.37;;
75766;SDS011;64378;55.596;13.014;2023-03-14T17:21:17;6.53;;;1.20;;
75766;SDS011;64378;55.596;13.014;2023-03-14T17:23:43;7.93;;;1.30;;
75766;SDS011;64378;55.596;13.014;2023-03-14T17:26:08;8.80;;;1.53;;
75766;SDS011;64378;55.596;13.014;2023-03-14T17:28:36;7.15;;;1.20;;
75766;SDS011;64378;55.596;13.014;2023-03-14T17:33:31;7.22;;;1.00;;
75766;SDS011;64378;55.596;13.014;2023-03-14T17:35:56;8.10;;;1.33;;
75766;SDS011;64378;55.596;13.014;2023-03-14T17:38:22;6.60;;;1.10;;
75766;SDS011;64378;55.596;13.014;2023-03-14T17:40:48;6.47;;;0.98;;
75766;SDS011;64378;55.596;13.014;2023-03-14T17:43:14;7.93;;;1.20;;
75766;SDS011;64378;55.596;13.014;2023-03-14T17:45:40;9.37;;;1.40;;
75766;SDS011;64378;55.596;13.014;2023-03-14T17:48:07;7.35;;;1.10;;
75766;SDS011;64378;55.596;13.014;2023-03-14T17:50:33;7.15;;;1.23;;
75766;SDS011;64378;55.596;13.014;2023-03-14T17:52:59;7.13;;;1.30;;
75766;SDS011;64378;55.596;13.014;2023-03-14T17:55:24;6.63;;;1.10;;
75766;SDS011;64378;55.596;13.014;2023-03-14T17:57:50;6.90;;;1.10;;
75766;SDS011;64378;55.596;13.014;2023-03-14T18:00:15;7.87;;;1.30;;
75766;SDS011;64378;55.596;13.014;2023-03-14T18:02:41;5.87;;;1.00;;
75766;SDS011;64378;55.596;13.014;2023-03-14T18:05:07;8.10;;;1.20;;
75766;SDS011;64378;55.596;13.014;2023-03-14T18:07:33;6.20;;;1.20;;
75766;SDS011;64378;55.596;13.014;2023-03-14T18:09:59;6.53;;;1.10;;
75766;SDS011;64378;55.596;13.014;2023-03-14T18:12:25;7.70;;;1.08;;
75766;SDS011;64378;55.596;13.014;2023-03-14T18:14:52;6.50;;;1.00;;
75766;SDS011;64378;55.596;13.014;2023-03-14T18:17:18;5.50;;;0.83;;
75766;SDS011;64378;55.596;13.014;2023-03-14T18:19:43;6.17;;;1.27;;
75766;SDS011;64378;55.596;13.014;2023-03-14T18:22:08;6.60;;;1.23;;
75766;SDS011;64378;55.596;13.014;2023-03-14T18:24:35;5.55;;;1.00;;
75766;SDS011;64378;55.596;13.014;2023-03-14T18:27:00;6.05;;;1.13;;
75766;SDS011;64378;55.596;13.014;2023-03-14T18:29:26;5.37;;;1.13;;
75766;SDS011;64378;55.596;13.014;2023-03-14T18:31:51;5.57;;;1.00;;
75766;SDS011;64378;55.596;13.014;2023-03-14T18:34:17;4.73;;;0.87;;
75766;SDS011;64378;55.596;13.014;2023-03-14T18:36:42;5.97;;;0.90;;
75766;SDS011;64378;55.596;13.014;2023-03-14T18:39:07;6.23;;;1.20;;
75766;SDS011;64378;55.596;13.014;2023-03-14T18:41:34;5.55;;;1.20;;
75766;SDS011;64378;55.596;13.014;2023-03-14T18:44:00;5.70;;;1.17;;
75766;SDS011;64378;55.596;13.014;2023-03-14T18:46:26;7.07;;;1.30;;
75766;SDS011;64378;55.596;13.014;2023-03-14T18:48:55;5.18;;;1.08;;
75766;SDS011;64378;55.596;13.014;2023-03-14T18:51:21;5.47;;;1.00;;
75766;SDS011;64378;55.596;13.014;2023-03-14T18:53:49;5.45;;;1.20;;
75766;SDS011;64378;55.596;13.014;2023-03-14T18:56:15;5.95;;;1.15;;
75766;SDS011;64378;55.596;13.014;2023-03-14T18:58:41;5.43;;;1.00;;
75766;SDS011;64378;55.596;13.014;2023-03-14T19:01:06;6.65;;;1.10;;
75766;SDS011;64378;55.596;13.014;2023-03-14T19:03:32;6.35;;;1.00;;
75766;SDS011;64378;55.596;13.014;2023-03-14T19:05:59;4.90;;;0.97;;
75766;SDS011;64378;55.596;13.014;2023-03-14T19:08:25;5.68;;;1.00;;
75766;SDS011;64378;55.596;13.014;2023-03-14T19:10:53;6.72;;;1.25;;
75766;SDS011;64378;55.596;13.014;2023-03-14T19:13:23;7.13;;;1.20;;
75766;SDS011;64378;55.596;13.014;2023-03-14T19:15:49;5.50;;;0.98;;
75766;SDS011;64378;55.596;13.014;2023-03-14T19:18:16;6.23;;;0.90;;
75766;SDS011;64378;55.596;13.014;2023-03-14T19:20:42;6.00;;;1.10;;
75766;SDS011;64378;55.596;13.014;2023-03-14T19:23:09;6.57;;;1.10;;
75766;SDS011;64378;55.596;13.014;2023-03-14T19:25:38;6.55;;;1.00;;
75766;SDS011;64378;55.596;13.014;2023-03-14T19:28:05;6.00;;;1.02;;
75766;SDS011;64378;55.596;13.014;2023-03-14T19:30:31;4.80;;;0.98;;
75766;SDS011;64378;55.596;13.014;2023-03-14T19:32:57;6.20;;;1.10;;
75766;SDS011;64378;55.596;13.014;2023-03-14T19:35:22;5.97;;;1.07;;
75766;SDS011;64378;55.596;13.014;2023-03-14T19:37:47;7.03;;;1.30;;
75766;SDS011;64378;55.596;13.014;2023-03-14T19:40:13;5.30;;;0.90;;
75766;SDS011;64378;55.596;13.014;2023-03-14T19:42:38;5.90;;;0.90;;
75766;SDS011;64378;55.596;13.014;2023-03-14T19:45:04;5.10;;;0.93;;
75766;SDS011;64378;55.596;13.014;2023-03-14T19:47:30;5.28;;;1.00;;
75766;SDS011;64378;55.596;13.014;2023-03-14T19:49:56;6.05;;;1.15;;
75766;SDS011;64378;55.596;13.014;2023-03-14T19:52:24;4.53;;;0.80;;
75766;SDS011;64378;55.596;13.014;2023-03-14T19:54:49;4.15;;;0.88;;
75766;SDS011;64378;55.596;13.014;2023-03-14T19:57:15;4.97;;;0.80;;
75766;SDS011;64378;55.596;13.014;2023-03-14T19:59:41;5.22;;;1.10;;
75766;SDS011;64378;55.596;13.014;2023-03-14T20:02:08;6.53;;;1.07;;
75766;SDS011;64378;55.596;13.014;2023-03-14T20:04:37;5.72;;;1.10;;
75766;SDS011;64378;55.596;13.014;2023-03-14T20:07:03;5.43;;;0.90;;
75766;SDS011;64378;55.596;13.014;2023-03-14T20:09:28;5.67;;;0.97;;
75766;SDS011;64378;55.596;13.014;2023-03-14T20:11:54;5.60;;;1.10;;
75766;SDS011;64378;55.596;13.014;2023-03-14T20:14:20;7.03;;;1.00;;
75766;SDS011;64378;55.596;13.014;2023-03-14T20:16:45;7.40;;;1.37;;
75766;SDS011;64378;55.596;13.014;2023-03-14T20:19:11;7.87;;;1.77;;
75766;SDS011;64378;55.596;13.014;2023-03-14T20:21:39;8.75;;;2.20;;
75766;SDS011;64378;55.596;13.014;2023-03-14T20:24:05;12.18;;;3.00;;
75766;SDS011;64378;55.596;13.014;2023-03-14T20:26:30;11.37;;;3.00;;
75766;SDS011;64378;55.596;13.014;2023-03-14T20:28:58;13.15;;;3.60;;
75766;SDS011;64378;55.596;13.014;2023-03-14T20:31:24;12.87;;;3.63;;
75766;SDS011;64378;55.596;13.014;2023-03-14T20:33:49;12.17;;;3.50;;
75766;SDS011;64378;55.596;13.014;2023-03-14T20:36:15;13.25;;;3.35;;
75766;SDS011;64378;55.596;13.014;2023-03-14T20:38:40;13.23;;;3.67;;
75766;SDS011;64378;55.596;13.014;2023-03-14T20:41:06;11.50;;;3.93;;
75766;SDS011;64378;55.596;13.014;2023-03-14T20:43:33;13.38;;;3.70;;
75766;SDS011;64378;55.596;13.014;2023-03-14T20:45:59;14.17;;;3.30;;
75766;SDS011;64378;55.596;13.014;2023-03-14T20:48:27;13.00;;;3.38;;
75766;SDS011;64378;55.596;13.014;2023-03-14T20:50:53;12.63;;;3.22;;
75766;SDS011;64378;55.596;13.014;2023-03-14T20:53:19;12.53;;;3.20;;
75766;SDS011;64378;55.596;13.014;2023-03-14T20:55:45;10.38;;;2.88;;
75766;SDS011;64378;55.596;13.014;2023-03-14T20:58:11;10.77;;;3.25;;
75766;SDS011;64378;55.596;13.014;2023-03-14T21:00:46;12.47;;;3.40;;
75766;SDS011;64378;55.596;13.014;2023-03-14T21:03:13;12.60;;;3.30;;
75766;SDS011;64378;55.596;13.014;2023-03-14T21:05:40;11.15;;;3.30;;
75766;SDS011;64378;55.596;13.014;2023-03-14T21:08:06;10.85;;;3.10;;
75766;SDS011;64378;55.596;13.014;2023-03-14T21:10:32;10.57;;;2.67;;
75766;SDS011;64378;55.596;13.014;2023-03-14T21:12:58;12.80;;;2.90;;
75766;SDS011;64378;55.596;13.014;2023-03-14T21:15:24;12.82;;;3.00;;
75766;SDS011;64378;55.596;13.014;2023-03-14T21:17:49;14.37;;;3.30;;
75766;SDS011;64378;55.596;13.014;2023-03-14T21:20:17;16.10;;;3.47;;
75766;SDS011;64378;55.596;13.014;2023-03-14T21:22:43;13.35;;;2.85;;
75766;SDS011;64378;55.596;13.014;2023-03-14T21:25:12;13.37;;;2.67;;
75766;SDS011;64378;55.596;13.014;2023-03-14T21:27:38;14.57;;;3.08;;
75766;SDS011;64378;55.596;13.014;2023-03-14T21:30:08;14.23;;;2.97;;
75766;SDS011;64378;55.596;13.014;2023-03-14T21:32:35;12.20;;;2.58;;
75766;SDS011;64378;55.596;13.014;2023-03-14T21:35:00;14.18;;;2.70;;
75766;SDS011;64378;55.596;13.014;2023-03-14T21:37:26;12.80;;;2.73;;
75766;SDS011;64378;55.596;13.014;2023-03-14T21:39:52;14.07;;;3.03;;
75766;SDS011;64378;55.596;13.014;2023-03-14T21:42:18;11.05;;;2.42;;
75766;SDS011;64378;55.596;13.014;2023-03-14T21:44:44;13.60;;;2.57;;
75766;SDS011;64378;55.596;13.014;2023-03-14T21:47:12;11.63;;;2.17;;
75766;SDS011;64378;55.596;13.014;2023-03-14T21:49:39;11.95;;;2.70;;
75766;SDS011;64378;55.596;13.014;2023-03-14T21:52:06;14.97;;;2.40;;
75766;SDS011;64378;55.596;13.014;2023-03-14T21:54:33;12.25;;;2.35;;
75766;SDS011;64378;55.596;13.014;2023-03-14T21:56:59;9.80;;;2.22;;
75766;SDS011;64378;55.596;13.014;2023-03-14T21:59:26;9.23;;;1.90;;
75766;SDS011;64378;55.596;13.014;2023-03-14T22:01:52;11.73;;;2.30;;
75766;SDS011;64378;55.596;13.014;2023-03-14T22:04:19;10.65;;;2.00;;
75766;SDS011;64378;55.596;13.014;2023-03-14T22:06:52;13.13;;;2.20;;
75766;SDS011;64378;55.596;13.014;2023-03-14T22:09:18;8.68;;;1.92;;
75766;SDS011;64378;55.596;13.014;2023-03-14T22:11:43;11.40;;;2.20;;
75766;SDS011;64378;55.596;13.014;2023-03-14T22:14:09;10.13;;;1.98;;
75766;SDS011;64378;55.596;13.014;2023-03-14T22:16:34;9.50;;;2.13;;
75766;SDS011;64378;55.596;13.014;2023-03-14T22:19:00;9.60;;;2.10;;
75766;SDS011;64378;55.596;13.014;2023-03-14T22:21:25;8.57;;;1.77;;
75766;SDS011;64378;55.596;13.014;2023-03-14T22:23:51;9.77;;;1.90;;
75766;SDS011;64378;55.596;13.014;2023-03-14T22:26:16;10.67;;;1.90;;
75766;SDS011;64378;55.596;13.014;2023-03-14T22:28:42;11.65;;;2.10;;
75766;SDS011;64378;55.596;13.014;2023-03-14T22:31:08;9.40;;;1.92;;
75766;SDS011;64378;55.596;13.014;2023-03-14T22:33:34;8.45;;;1.85;;
75766;SDS011;64378;55.596;13.014;2023-03-14T22:35:59;9.10;;;1.57;;
75766;SDS011;64378;55.596;13.014;2023-03-14T22:38:24;8.87;;;1.80;;
75766;SDS011;64378;55.596;13.014;2023-03-14T22:40:50;8.87;;;1.70;;
75766;SDS011;64378;55.596;13.014;2023-03-14T22:43:16;8.18;;;1.50;;
75766;SDS011;64378;55.596;13.014;2023-03-14T22:45:41;8.03;;;1.77;;
75766;SDS011;64378;55.596;13.014;2023-03-14T22:48:07;9.90;;;1.77;;
75766;SDS011;64378;55.596;13.014;2023-03-14T22:50:33;9.82;;;2.20;;
75766;SDS011;64378;55.596;13.014;2023-03-14T22:52:58;8.50;;;1.47;;
75766;SDS011;64378;55.596;13.014;2023-03-14T22:55:24;8.80;;;1.75;;
75766;SDS011;64378;55.596;13.014;2023-03-14T22:57:50;9.50;;;1.57;;
75766;SDS011;64378;55.596;13.014;2023-03-14T23:00:16;8.85;;;1.60;;
75766;SDS011;64378;55.596;13.014;2023-03-14T23:02:42;7.82;;;1.45;;
75766;SDS011;64378;55.596;13.014;2023-03-14T23:05:08;8.20;;;1.80;;
75766;SDS011;64378;55.596;13.014;2023-03-14T23:07:34;8.35;;;1.50;;
75766;SDS011;64378;55.596;13.014;2023-03-14T23:09:59;7.30;;;1.50;;
75766;SDS011;64378;55.596;13.014;2023-03-14T23:12:24;7.13;;;1.40;;
75766;SDS011;64378;55.596;13.014;2023-03-14T23:14:50;7.77;;;1.47;;
75766;SDS011;64378;55.596;13.014;2023-03-14T23:17:15;8.40;;;1.30;;
75766;SDS011;64378;55.596;13.014;2023-03-14T23:19:41;7.60;;;1.57;;
75766;SDS011;64378;55.596;13.014;2023-03-14T23:22:09;9.18;;;1.70;;
75766;SDS011;64378;55.596;13.014;2023-03-14T23:24:35;8.60;;;1.45;;
75766;SDS011;64378;55.596;13.014;2023-03-14T23:27:03;8.65;;;1.55;;
75766;SDS011;64378;55.596;13.014;2023-03-14T23:29:29;7.63;;;1.30;;
75766;SDS011;64378;55.596;13.014;2023-03-14T23:31:54;7.20;;;1.57;;
75766;SDS011;64378;55.596;13.014;2023-03-14T23:34:20;7.57;;;1.20;;
75766;SDS011;64378;55.596;13.014;2023-03-14T23:36:45;8.25;;;1.52;;
75766;SDS011;64378;55.596;13.014;2023-03-14T23:39:11;6.90;;;1.30;;
75766;SDS011;64378;55.596;13.014;2023-03-14T23:41:36;6.57;;;1.30;;
75766;SDS011;64378;55.596;13.014;2023-03-14T23:44:02;8.97;;;1.70;;
75766;SDS011;64378;55.596;13.014;2023-03-14T23:46:28;6.97;;;1.38;;
75766;SDS011;64378;55.596;13.014;2023-03-14T23:48:55;7.90;;;1.35;;
75766;SDS011;64378;55.596;13.014;2023-03-14T23:51:21;6.73;;;1.33;;
75766;SDS011;64378;55.596;13.014;2023-03-14T23:53:47;6.80;;;1.10;;
75766;SDS011;64378;55.596;13.014;2023-03-14T23:56:13;6.20;;;1.40;;
75766;SDS011;64378;55.596;13.014;2023-03-14T23:58:40;7.00;;;1.20;;
